createdAt,value
2018-01-26T00:02:06.889Z,0.28
2018-01-26T00:04:36.079Z,0.21
2018-01-26T00:07:04.925Z,0.23
2018-01-26T00:09:33.799Z,0.17
2018-01-26T00:12:02.764Z,0.15
2018-01-26T00:14:31.900Z,0.20
2018-01-26T00:17:01.103Z,0.14
2018-01-26T00:19:29.960Z,0.11
2018-01-26T00:21:58.837Z,0.15
2018-01-26T00:24:27.680Z,0.06
2018-01-26T00:26:57.780Z,0.07
2018-01-26T00:29:27.253Z,0.08
2018-01-26T00:31:56.082Z,0.08
2018-01-26T00:34:25.393Z,0.06
2018-01-26T00:36:54.273Z,0.03
2018-01-26T00:39:23.343Z,0.01
2018-01-26T00:41:53.432Z,0.02
2018-01-26T00:44:22.533Z,0.04
2018-01-26T00:47:00.114Z,0.01
2018-01-26T00:49:28.983Z,-0.01
2018-01-26T00:51:57.781Z,-0.03
2018-01-26T00:54:30.716Z,-0.12
2018-01-26T00:56:59.924Z,-0.09
2018-01-26T00:59:29.218Z,-0.24
2018-01-26T01:01:58.965Z,-0.19
2018-01-26T01:04:27.952Z,-0.11
2018-01-26T01:06:57.270Z,-0.20
2018-01-26T01:09:28.250Z,-0.09
2018-01-26T01:11:57.491Z,-0.06
2018-01-26T01:14:26.368Z,-0.06
2018-01-26T01:16:57.578Z,-0.08
2018-01-26T01:19:26.716Z,-0.12
2018-01-26T01:21:55.900Z,-0.11
2018-01-26T01:24:27.000Z,-0.05
2018-01-26T01:26:55.956Z,-0.11
2018-01-26T01:29:24.935Z,-0.14
2018-01-26T01:31:56.454Z,-0.12
2018-01-26T01:34:25.641Z,-0.16
2018-01-26T01:36:54.912Z,-0.14
2018-01-26T01:39:25.829Z,-0.11
2018-01-26T01:41:54.645Z,-0.08
2018-01-26T01:44:23.865Z,-0.09
2018-01-26T01:46:54.734Z,-0.15
2018-01-26T01:49:23.979Z,-0.18
2018-01-26T01:51:53.264Z,-0.20
2018-01-26T01:54:22.614Z,-0.20
2018-01-26T01:56:51.779Z,-0.22
2018-01-26T01:59:21.013Z,-0.26
2018-01-26T02:01:50.124Z,-0.21
2018-01-26T02:04:19.486Z,-0.22
2018-01-26T02:06:48.589Z,-0.17
2018-01-26T02:09:17.819Z,-0.22
2018-01-26T02:11:46.991Z,-0.24
2018-01-26T02:14:16.349Z,-0.28
2018-01-26T02:16:47.024Z,-0.35
2018-01-26T02:19:16.248Z,-0.28
2018-01-26T02:21:45.537Z,-0.33
2018-01-26T02:24:15.721Z,-0.29
2018-01-26T02:26:44.818Z,-0.33
2018-01-26T02:29:13.721Z,-0.30
2018-01-26T02:31:43.039Z,-0.33
2018-01-26T02:34:11.914Z,-0.31
2018-01-26T02:36:40.733Z,-0.36
2018-01-26T02:39:11.394Z,-0.35
2018-01-26T02:41:40.219Z,-0.35
2018-01-26T02:44:09.052Z,-0.32
2018-01-26T02:46:37.993Z,-0.31
2018-01-26T02:49:06.828Z,-0.35
2018-01-26T02:51:35.974Z,-0.43
2018-01-26T02:54:05.715Z,-0.45
2018-01-26T02:56:34.512Z,-0.46
2018-01-26T02:59:03.341Z,-0.41
2018-01-26T03:01:33.036Z,-0.45
2018-01-26T03:04:01.852Z,-0.45
2018-01-26T03:06:30.705Z,-0.49
2018-01-26T03:08:59.596Z,-0.58
2018-01-26T03:11:28.429Z,-0.61
2018-01-26T03:13:57.720Z,-0.66
2018-01-26T03:16:26.671Z,-0.70
2018-01-26T03:18:55.971Z,-0.74
2018-01-26T03:21:24.765Z,-0.75
2018-01-26T03:23:53.736Z,-0.78
2018-01-26T03:26:22.970Z,-0.78
2018-01-26T03:28:51.755Z,-0.76
2018-01-26T03:31:25.321Z,-0.81
2018-01-26T03:33:54.480Z,-0.79
2018-01-26T03:36:23.582Z,-0.82
2018-01-26T03:38:53.339Z,-0.85
2018-01-26T03:41:22.429Z,-0.87
2018-01-26T03:43:51.283Z,-0.83
2018-01-26T03:46:20.376Z,-0.76
2018-01-26T03:48:49.508Z,-0.77
2018-01-26T03:51:18.384Z,-0.77
2018-01-26T03:53:47.682Z,-0.81
2018-01-26T03:56:16.843Z,-0.82
2018-01-26T03:58:46.079Z,-0.89
2018-01-26T04:01:17.205Z,-1.02
2018-01-26T04:03:46.344Z,-1.08
2018-01-26T04:06:15.482Z,-1.07
2018-01-26T04:08:44.319Z,-1.07
2018-01-26T04:11:13.521Z,-0.99
2018-01-26T04:13:42.561Z,-0.89
2018-01-26T04:16:11.417Z,-0.89
2018-01-26T04:18:40.228Z,-0.83
2018-01-26T04:21:09.126Z,-0.75
2018-01-26T04:23:41.197Z,-0.72
2018-01-26T04:26:11.211Z,-0.65
2018-01-26T04:28:40.252Z,-0.60
2018-01-26T04:31:12.193Z,-0.51
2018-01-26T04:33:42.501Z,-0.48
2018-01-26T04:36:11.590Z,-0.42
2018-01-26T04:38:40.652Z,-0.43
2018-01-26T04:41:15.621Z,-0.44
2018-01-26T04:43:46.356Z,-0.42
2018-01-26T04:46:16.659Z,-0.45
2018-01-26T04:48:46.726Z,-0.39
2018-01-26T04:51:20.720Z,-0.42
2018-01-26T04:53:50.290Z,-0.40
2018-01-26T04:56:24.025Z,-0.30
2018-01-26T04:58:55.782Z,-0.21
2018-01-26T05:01:25.321Z,-0.21
2018-01-26T05:03:54.585Z,-0.23
2018-01-26T05:06:24.714Z,-0.23
2018-01-26T05:08:54.139Z,-0.24
2018-01-26T05:11:24.372Z,-0.17
2018-01-26T05:13:53.733Z,-0.18
2018-01-26T05:16:23.185Z,-0.25
2018-01-26T05:18:52.164Z,-0.12
2018-01-26T05:21:22.484Z,-0.13
2018-01-26T05:23:51.697Z,-0.22
2018-01-26T05:26:21.105Z,-0.14
2018-01-26T05:28:50.406Z,-0.27
2018-01-26T05:31:24.544Z,-0.29
2018-01-26T05:33:54.617Z,-0.29
2018-01-26T05:36:27.074Z,-0.26
2018-01-26T05:38:57.248Z,-0.30
2018-01-26T05:41:26.545Z,-0.23
2018-01-26T05:43:57.077Z,-0.20
2018-01-26T05:46:25.868Z,-0.22
2018-01-26T05:48:55.515Z,-0.23
2018-01-26T05:51:26.764Z,-0.16
2018-01-26T05:53:56.428Z,-0.03
2018-01-26T05:56:26.472Z,0.23
2018-01-26T05:58:56.824Z,0.34
2018-01-26T06:01:26.327Z,0.34
2018-01-26T06:03:55.577Z,0.49
2018-01-26T06:06:24.963Z,0.56
2018-01-26T06:08:55.192Z,0.64
2018-01-26T06:11:29.056Z,0.68
2018-01-26T06:13:58.847Z,0.64
2018-01-26T06:16:28.021Z,0.70
2018-01-26T06:18:57.211Z,0.73
2018-01-26T06:21:26.361Z,0.82
2018-01-26T06:23:55.506Z,0.89
2018-01-26T06:26:24.357Z,0.91
2018-01-26T06:28:53.544Z,0.97
2018-01-26T06:31:22.691Z,1.01
2018-01-26T06:33:58.812Z,1.09
2018-01-26T06:36:28.087Z,1.09
2018-01-26T06:38:57.030Z,1.17
2018-01-26T06:41:26.849Z,1.28
2018-01-26T06:43:57.275Z,1.37
2018-01-26T06:46:26.571Z,1.48
2018-01-26T06:48:56.790Z,1.66
2018-01-26T06:51:25.983Z,1.76
2018-01-26T06:53:54.955Z,1.93
2018-01-26T06:56:24.878Z,2.09
2018-01-26T06:58:55.423Z,2.27
2018-01-26T07:01:24.603Z,2.21
2018-01-26T07:03:58.003Z,2.26
2018-01-26T07:06:27.884Z,2.22
2018-01-26T07:08:57.523Z,2.21
2018-01-26T07:11:26.788Z,2.10
2018-01-26T07:13:59.424Z,2.22
2018-01-26T07:16:28.779Z,2.27
2018-01-26T07:18:58.097Z,2.35
2018-01-26T07:21:27.277Z,2.50
2018-01-26T07:23:57.472Z,2.52
2018-01-26T07:26:28.637Z,2.58
2018-01-26T07:29:00.218Z,2.67
2018-01-26T07:31:29.691Z,2.71
2018-01-26T07:34:00.976Z,2.79
2018-01-26T07:36:30.692Z,2.80
2018-01-26T07:39:00.133Z,2.88
2018-01-26T07:41:33.028Z,2.82
2018-01-26T07:44:02.194Z,2.93
2018-01-26T07:46:33.417Z,3.14
2018-01-26T07:49:07.330Z,3.30
2018-01-26T07:51:36.424Z,3.27
2018-01-26T07:54:05.330Z,3.18
2018-01-26T07:56:34.490Z,3.17
2018-01-26T07:59:03.677Z,2.98
2018-01-26T08:01:32.766Z,3.07
2018-01-26T08:04:03.225Z,2.95
2018-01-26T08:06:32.049Z,2.92
2018-01-26T08:09:00.935Z,3.09
2018-01-26T08:11:31.639Z,3.33
2018-01-26T08:14:01.799Z,3.26
2018-01-26T08:16:31.635Z,3.27
2018-01-26T08:19:00.839Z,3.35
2018-01-26T08:21:33.575Z,3.48
2018-01-26T08:24:02.508Z,3.42
2018-01-26T08:26:31.617Z,3.62
2018-01-26T08:29:01.670Z,3.69
2018-01-26T08:31:30.786Z,3.62
2018-01-26T08:33:59.627Z,3.72
2018-01-26T08:36:31.003Z,3.59
2018-01-26T08:39:01.009Z,3.41
2018-01-26T08:41:30.149Z,3.48
2018-01-26T08:43:59.169Z,3.45
2018-01-26T08:46:30.633Z,3.65
2018-01-26T08:48:59.492Z,3.88
2018-01-26T08:51:28.410Z,3.83
2018-01-26T08:53:59.073Z,3.55
2018-01-26T08:56:27.982Z,3.31
2018-01-26T08:58:56.863Z,3.64
2018-01-26T09:01:29.168Z,3.67
2018-01-26T09:03:58.008Z,3.85
2018-01-26T09:06:26.813Z,3.74
2018-01-26T09:08:55.837Z,3.64
2018-01-26T09:11:24.688Z,3.32
2018-01-26T09:13:53.528Z,3.50
2018-01-26T09:16:22.468Z,3.65
2018-01-26T09:18:51.287Z,3.79
2018-01-26T09:21:20.147Z,3.54
2018-01-26T09:23:49.146Z,3.65
2018-01-26T09:26:18.058Z,3.62
2018-01-26T09:28:46.875Z,3.73
2018-01-26T09:31:15.736Z,3.96
2018-01-26T09:33:44.556Z,4.28
2018-01-26T09:36:13.381Z,4.31
2018-01-26T09:38:42.487Z,4.47
2018-01-26T09:41:11.322Z,4.03
2018-01-26T09:43:40.157Z,3.90
2018-01-26T09:46:10.232Z,3.71
2018-01-26T09:48:39.233Z,3.81
2018-01-26T09:51:08.107Z,4.13
2018-01-26T09:53:38.629Z,4.01
2018-01-26T09:56:07.688Z,4.08
2018-01-26T09:58:36.594Z,4.08
2018-01-26T10:01:06.265Z,3.79
2018-01-26T10:03:35.103Z,3.73
2018-01-26T10:06:03.917Z,3.60
2018-01-26T10:08:34.504Z,3.90
2018-01-26T10:11:03.479Z,4.08
2018-01-26T10:13:32.283Z,4.23
2018-01-26T10:16:01.108Z,4.31
2018-01-26T10:18:30.022Z,4.27
2018-01-26T10:20:58.849Z,4.17
2018-01-26T10:23:27.693Z,4.18
2018-01-26T10:25:56.473Z,4.05
2018-01-26T10:28:26.153Z,3.95
2018-01-26T10:30:55.277Z,4.11
2018-01-26T10:33:24.173Z,4.11
2018-01-26T10:35:52.943Z,4.18
2018-01-26T10:38:22.717Z,3.84
2018-01-26T10:40:51.488Z,3.76
2018-01-26T10:43:20.303Z,3.61
2018-01-26T10:45:49.221Z,3.59
2018-01-26T10:48:18.021Z,3.67
2018-01-26T10:50:46.968Z,3.76
2018-01-26T10:53:15.874Z,3.81
2018-01-26T10:55:44.673Z,3.93
2018-01-26T10:58:13.570Z,3.60
2018-01-26T11:00:46.800Z,3.54
2018-01-26T11:03:15.722Z,3.58
2018-01-26T11:05:44.521Z,3.50
2018-01-26T11:08:13.337Z,3.57
2018-01-26T11:10:42.155Z,3.64
2018-01-26T11:13:10.946Z,3.49
2018-01-26T11:15:40.624Z,3.42
2018-01-26T11:18:09.528Z,3.56
2018-01-26T11:20:38.348Z,3.58
2018-01-26T11:23:07.270Z,3.54
2018-01-26T11:25:36.072Z,3.62
2018-01-26T11:28:04.904Z,3.73
2018-01-26T11:30:33.885Z,3.61
2018-01-26T11:33:02.699Z,3.62
2018-01-26T11:35:31.601Z,3.71
2018-01-26T11:38:00.671Z,3.82
2018-01-26T11:40:29.534Z,3.80
2018-01-26T11:42:58.323Z,3.65
2018-01-26T11:45:27.224Z,3.81
2018-01-26T11:47:56.063Z,3.63
2018-01-26T11:50:24.863Z,3.64
2018-01-26T11:52:54.603Z,3.66
2018-01-26T11:55:23.489Z,3.50
2018-01-26T11:57:52.362Z,3.59
2018-01-26T12:00:27.095Z,3.53
2018-01-26T12:02:55.912Z,3.60
2018-01-26T12:05:24.695Z,3.64
2018-01-26T12:07:54.348Z,3.56
2018-01-26T12:10:23.197Z,3.71
2018-01-26T12:12:52.011Z,3.69
2018-01-26T12:15:20.877Z,3.68
2018-01-26T12:17:49.799Z,3.70
2018-01-26T12:20:18.643Z,3.67
2018-01-26T12:22:50.211Z,3.70
2018-01-26T12:25:22.159Z,3.83
2018-01-26T12:27:54.208Z,3.73
2018-01-26T12:30:23.321Z,3.72
2018-01-26T12:32:52.367Z,3.73
2018-01-26T12:35:22.003Z,3.84
2018-01-26T12:37:50.852Z,3.76
2018-01-26T12:40:19.693Z,3.91
2018-01-26T12:42:48.552Z,3.96
2018-01-26T12:45:17.341Z,3.87
2018-01-26T12:47:46.112Z,4.03
2018-01-26T12:50:14.914Z,4.01
2018-01-26T12:52:43.686Z,4.04
2018-01-26T12:55:12.595Z,3.89
2018-01-26T12:57:41.422Z,3.83
2018-01-26T13:00:10.267Z,3.78
2018-01-26T13:02:39.136Z,3.72
2018-01-26T13:05:08.855Z,3.64
2018-01-26T13:07:37.630Z,3.59
2018-01-26T13:10:06.450Z,3.63
2018-01-26T13:12:35.284Z,3.73
2018-01-26T13:15:04.267Z,3.61
2018-01-26T13:17:33.044Z,3.49
2018-01-26T13:20:02.892Z,3.43
2018-01-26T13:22:31.938Z,3.54
2018-01-26T13:25:00.748Z,3.72
2018-01-26T13:27:30.642Z,3.87
2018-01-26T13:29:59.435Z,4.03
2018-01-26T13:32:28.222Z,4.11
2018-01-26T13:34:57.063Z,3.92
2018-01-26T13:37:25.871Z,3.92
2018-01-26T13:39:54.698Z,3.77
2018-01-26T13:42:23.588Z,3.57
2018-01-26T13:44:52.383Z,3.47
2018-01-26T13:47:21.185Z,3.41
2018-01-26T13:49:54.856Z,3.41
2018-01-26T13:52:23.668Z,3.33
2018-01-26T13:54:52.566Z,3.35
2018-01-26T13:57:21.558Z,3.25
2018-01-26T13:59:50.409Z,3.20
2018-01-26T14:02:19.235Z,3.26
2018-01-26T14:04:48.104Z,3.35
2018-01-26T14:07:16.926Z,3.23
2018-01-26T14:09:45.817Z,3.16
2018-01-26T14:12:14.645Z,3.26
2018-01-26T14:14:43.391Z,3.27
2018-01-26T14:17:12.202Z,3.25
2018-01-26T14:19:41.025Z,3.35
2018-01-26T14:22:09.839Z,3.17
2018-01-26T14:24:38.877Z,3.08
2018-01-26T14:27:08.096Z,3.03
2018-01-26T14:29:37.076Z,3.07
2018-01-26T14:32:06.116Z,3.07
2018-01-26T14:34:36.704Z,2.95
2018-01-26T14:37:05.519Z,2.91
2018-01-26T14:39:34.485Z,2.83
2018-01-26T14:42:03.375Z,2.73
2018-01-26T14:44:32.176Z,2.70
2018-01-26T14:47:01.155Z,2.77
2018-01-26T14:49:31.240Z,2.62
2018-01-26T14:52:00.030Z,2.58
2018-01-26T14:54:28.864Z,2.49
2018-01-26T14:56:58.615Z,2.42
2018-01-26T14:59:28.030Z,2.28
2018-01-26T15:01:56.876Z,2.26
2018-01-26T15:04:26.615Z,2.34
2018-01-26T15:06:55.423Z,2.34
2018-01-26T15:09:24.241Z,2.25
2018-01-26T15:11:55.533Z,2.13
2018-01-26T15:14:24.883Z,2.11
2018-01-26T15:16:54.988Z,2.13
2018-01-26T15:19:26.572Z,2.07
2018-01-26T15:21:56.442Z,1.98
2018-01-26T15:24:25.454Z,1.96
2018-01-26T15:26:55.468Z,1.83
2018-01-26T15:29:24.373Z,1.80
2018-01-26T15:31:53.144Z,1.74
2018-01-26T15:34:22.917Z,1.66
2018-01-26T15:36:52.816Z,1.62
2018-01-26T15:39:21.729Z,1.62
2018-01-26T15:41:54.197Z,1.61
2018-01-26T15:44:23.111Z,1.61
2018-01-26T15:46:52.011Z,1.65
2018-01-26T15:49:20.822Z,1.63
2018-01-26T15:51:49.615Z,1.56
2018-01-26T15:54:18.417Z,1.56
2018-01-26T15:56:48.167Z,1.53
2018-01-26T15:59:17.080Z,1.50
2018-01-26T16:01:45.999Z,1.40
2018-01-26T16:04:17.569Z,1.34
2018-01-26T16:06:46.345Z,1.35
2018-01-26T16:09:15.234Z,1.35
2018-01-26T16:11:44.301Z,1.33
2018-01-26T16:14:13.123Z,1.29
2018-01-26T16:16:41.995Z,1.32
2018-01-26T16:19:11.760Z,1.15
2018-01-26T16:21:40.639Z,1.07
2018-01-26T16:24:09.530Z,1.11
2018-01-26T16:26:43.611Z,0.90
2018-01-26T16:29:13.553Z,0.91
2018-01-26T16:31:42.480Z,0.97
2018-01-26T16:34:14.969Z,0.93
2018-01-26T16:36:43.993Z,0.84
2018-01-26T16:39:12.974Z,0.78
2018-01-26T16:41:42.055Z,0.78
2018-01-26T16:44:11.009Z,0.76
2018-01-26T16:46:39.960Z,0.74
2018-01-26T16:49:09.222Z,0.64
2018-01-26T16:51:38.128Z,0.62
2018-01-26T16:54:06.985Z,0.59
2018-01-26T16:56:38.443Z,0.62
2018-01-26T16:59:07.244Z,0.57
2018-01-26T17:01:36.212Z,0.67
2018-01-26T17:04:08.481Z,0.68
2018-01-26T17:06:37.327Z,0.63
2018-01-26T17:09:06.157Z,0.55
2018-01-26T17:11:34.946Z,0.58
2018-01-26T17:14:03.887Z,0.53
2018-01-26T17:16:32.697Z,0.49
2018-01-26T17:19:03.228Z,0.47
2018-01-26T17:21:32.111Z,0.40
2018-01-26T17:24:00.929Z,0.40
2018-01-26T17:26:31.591Z,0.38
2018-01-26T17:29:00.391Z,0.45
2018-01-26T17:31:29.251Z,0.37
2018-01-26T17:33:58.557Z,0.35
2018-01-26T17:36:27.395Z,0.26
2018-01-26T17:38:56.228Z,0.13
2018-01-26T17:41:25.978Z,-0.02
2018-01-26T17:43:54.805Z,-0.06
2018-01-26T17:46:23.635Z,-0.15
2018-01-26T17:48:52.614Z,-0.25
2018-01-26T17:51:21.474Z,-0.23
2018-01-26T17:53:50.505Z,-0.27
2018-01-26T17:56:19.483Z,-0.28
2018-01-26T17:58:48.316Z,-0.32
2018-01-26T18:01:17.120Z,-0.26
2018-01-26T18:03:46.270Z,-0.26
2018-01-26T18:06:15.123Z,-0.29
2018-01-26T18:08:43.995Z,-0.34
2018-01-26T18:11:13.699Z,-0.39
2018-01-26T18:13:42.560Z,-0.34
2018-01-26T18:16:11.504Z,-0.28
2018-01-26T18:18:40.367Z,-0.39
2018-01-26T18:21:09.233Z,-0.45
2018-01-26T18:23:38.225Z,-0.36
2018-01-26T18:26:07.964Z,-0.32
2018-01-26T18:28:36.823Z,-0.36
2018-01-26T18:31:05.634Z,-0.37
2018-01-26T18:33:35.369Z,-0.33
2018-01-26T18:36:04.202Z,-0.37
2018-01-26T18:38:34.216Z,-0.37
2018-01-26T18:41:03.194Z,-0.42
2018-01-26T18:43:32.065Z,-0.39
2018-01-26T18:46:00.941Z,-0.34
2018-01-26T18:48:29.792Z,-0.34
2018-01-26T18:50:58.616Z,-0.31
2018-01-26T18:53:27.444Z,-0.34
2018-01-26T18:55:58.002Z,-0.37
2018-01-26T18:58:26.857Z,-0.34
2018-01-26T19:00:55.722Z,-0.33
2018-01-26T19:03:25.510Z,-0.40
2018-01-26T19:05:54.415Z,-0.38
2018-01-26T19:08:23.288Z,-0.36
2018-01-26T19:10:52.568Z,-0.27
2018-01-26T19:13:21.421Z,-0.35
2018-01-26T19:15:50.221Z,-0.40
2018-01-26T19:18:19.106Z,-0.39
2018-01-26T19:20:47.957Z,-0.26
2018-01-26T19:23:17.056Z,-0.28
2018-01-26T19:25:45.940Z,-0.29
2018-01-26T19:28:14.776Z,-0.29
2018-01-26T19:30:43.722Z,-0.30
2018-01-26T19:33:15.332Z,-0.41
2018-01-26T19:35:44.224Z,-0.33
2018-01-26T19:38:13.060Z,-0.24
2018-01-26T19:40:41.961Z,-0.22
2018-01-26T19:43:10.758Z,-0.24
2018-01-26T19:45:39.701Z,-0.19
2018-01-26T19:48:08.841Z,-0.18
2018-01-26T19:50:37.741Z,-0.11
2018-01-26T19:53:06.622Z,-0.08
2018-01-26T19:55:35.729Z,-0.03
2018-01-26T19:58:04.634Z,-0.04
2018-01-26T20:00:33.570Z,0.02
2018-01-26T20:03:14.455Z,-0.01
2018-01-26T20:05:58.908Z,-0.01
2018-01-26T20:08:34.091Z,-0.02
2018-01-26T20:11:02.892Z,0.09
2018-01-26T20:13:31.807Z,0.23
2018-01-26T20:16:02.452Z,0.30
2018-01-26T20:18:31.283Z,0.30
2018-01-26T20:21:00.109Z,0.33
2018-01-26T20:23:29.058Z,0.41
2018-01-26T20:25:57.906Z,0.51
2018-01-26T20:28:26.739Z,0.54
2018-01-26T20:30:55.584Z,0.63
2018-01-26T20:33:24.462Z,0.65
2018-01-26T20:35:53.443Z,0.58
2018-01-26T20:38:22.347Z,0.53
2018-01-26T20:40:53.111Z,0.45
2018-01-26T20:43:21.916Z,0.50
2018-01-26T20:45:51.755Z,0.47
2018-01-26T20:48:20.917Z,0.57
2018-01-26T20:50:49.782Z,0.57
2018-01-26T20:53:18.630Z,0.62
2018-01-26T20:55:47.510Z,0.62
2018-01-26T20:58:16.356Z,0.70
2018-01-26T21:00:45.491Z,0.66
2018-01-26T21:03:14.302Z,0.79
2018-01-26T21:05:43.277Z,0.77
2018-01-26T21:08:12.367Z,0.82
2018-01-26T21:10:41.226Z,0.79
2018-01-26T21:13:11.006Z,0.78
2018-01-26T21:15:42.345Z,0.88
2018-01-26T21:18:11.249Z,0.87
2018-01-26T21:20:40.069Z,0.89
2018-01-26T21:23:09.423Z,0.91
2018-01-26T21:25:38.220Z,1.07
2018-01-26T21:28:07.110Z,1.13
2018-01-26T21:30:36.923Z,1.21
2018-01-26T21:33:05.793Z,1.20
2018-01-26T21:35:34.681Z,1.21
2018-01-26T21:38:03.755Z,1.23
2018-01-26T21:40:32.570Z,1.14
2018-01-26T21:43:01.428Z,1.18
2018-01-26T21:45:32.028Z,1.23
2018-01-26T21:48:00.825Z,1.16
2018-01-26T21:50:29.755Z,1.14
2018-01-26T21:55:32.678Z,1.03
2018-01-26T21:58:01.457Z,1.08
2018-01-26T22:00:30.437Z,1.10
2018-01-26T22:02:59.257Z,1.19
2018-01-26T22:05:28.087Z,1.21
2018-01-26T22:07:58.747Z,1.23
2018-01-26T22:10:27.569Z,1.14
2018-01-26T22:12:56.411Z,1.25
2018-01-26T22:15:27.058Z,1.20
2018-01-26T22:23:55.616Z,1.05
2018-01-26T22:26:24.513Z,1.21
2018-01-26T22:28:53.417Z,1.22
2018-01-26T22:31:22.254Z,1.25
2018-01-26T22:33:51.995Z,1.28
2018-01-26T22:36:20.823Z,1.36
2018-01-26T22:38:49.666Z,1.43
2018-01-26T22:41:21.184Z,1.28
2018-01-26T22:43:49.954Z,1.32
2018-01-26T22:46:18.761Z,1.33
2018-01-26T22:48:47.599Z,1.30
2018-01-26T22:51:16.556Z,1.22
2018-01-26T22:53:45.379Z,1.22
2018-01-26T22:56:15.249Z,1.24
2018-01-26T22:58:44.116Z,1.27
2018-01-26T23:01:12.941Z,1.29
2018-01-26T23:03:42.684Z,1.25
2018-01-26T23:06:11.454Z,1.27
2018-01-26T23:08:40.377Z,1.18
2018-01-26T23:11:10.063Z,1.18
2018-01-26T23:13:38.923Z,1.23
2018-01-26T23:16:07.784Z,1.28
2018-01-26T23:18:38.525Z,1.25
2018-01-26T23:21:07.374Z,1.27
2018-01-26T23:23:36.358Z,1.25
2018-01-26T23:26:06.383Z,1.33
2018-01-26T23:28:35.225Z,1.35
2018-01-26T23:31:04.142Z,1.40
2018-01-26T23:33:32.984Z,1.45
2018-01-26T23:36:01.824Z,1.43
2018-01-26T23:38:30.688Z,1.39
2018-01-26T23:40:59.554Z,1.36
2018-01-26T23:43:28.435Z,1.42
2018-01-26T23:45:57.273Z,1.49
2018-01-26T23:48:26.519Z,1.42
2018-01-26T23:50:55.477Z,1.42
2018-01-26T23:53:24.394Z,1.45
2018-01-26T23:55:54.136Z,1.38
2018-01-26T23:58:23.011Z,1.42
